Time;durP1;ratioP1;P1;durP2;ratioP2;P2;SDS_P1;SDS_P2;PMS_P1;PMS_P2;Temp;Humidity;BMP_temperature;BMP_pressure;BME280_temperature;BME280_humidity;BME280_pressure;Samples;Min_cycle;Max_cycle;Signal;HPM_P1;HPM_P2
2022/03/13 00:01:03;;;;;;;57.53;31.00;;;6.40;1.00;;;;;;4988924;28;20189;-62
2022/03/13 00:03:34;;;;;;;22.37;15.17;;;6.30;1.00;;;;;;4980890;28;20205;-63
2022/03/13 00:06:02;;;;;;;25.07;17.83;;;6.20;1.00;;;;;;4971637;28;20210;-62
2022/03/13 00:08:32;;;;;;;41.37;27.37;;;6.20;1.00;;;;;;4980659;28;20213;-63
2022/03/13 00:11:07;;;;;;;22.93;15.53;;;6.10;1.00;;;;;;4983052;28;20201;-62
2022/03/13 00:13:39;;;;;;;20.43;14.47;;;6.00;1.00;;;;;;4980836;28;20194;-62
2022/03/13 00:16:08;;;;;;;24.10;16.87;;;6.00;1.00;;;;;;4997914;28;20214;-63
2022/03/13 00:18:41;;;;;;;25.50;18.50;;;5.90;1.00;;;;;;4995669;28;20606;-63
2022/03/13 00:21:10;;;;;;;25.93;16.73;;;5.90;1.00;;;;;;4987677;28;20224;-63
2022/03/13 00:23:37;;;;;;;20.67;15.20;;;5.80;1.00;;;;;;4987841;28;20237;-62
2022/03/13 00:26:06;;;;;;;27.83;18.03;;;5.90;1.00;;;;;;4996187;28;20266;-63
2022/03/13 00:28:34;;;;;;;31.97;18.87;;;5.80;1.00;;;;;;4981998;28;20202;-63
2022/03/13 00:31:02;;;;;;;29.23;17.10;;;5.70;1.00;;;;;;4978349;28;20197;-64
2022/03/13 00:33:29;;;;;;;25.47;18.33;;;5.70;1.00;;;;;;4981511;28;20202;-62
2022/03/13 00:35:56;;;;;;;23.53;16.33;;;5.70;1.00;;;;;;4996897;28;20233;-62
2022/03/13 00:38:25;;;;;;;24.57;15.87;;;5.70;1.00;;;;;;4979729;28;20198;-62
2022/03/13 00:40:53;;;;;;;24.50;15.90;;;5.60;1.00;;;;;;4970054;28;20267;-62
2022/03/13 00:43:22;;;;;;;27.53;16.87;;;5.60;1.00;;;;;;4981200;28;20264;-64
2022/03/13 00:45:52;;;;;;;20.17;14.70;;;5.60;1.00;;;;;;4982622;28;20660;-62
2022/03/13 00:48:20;;;;;;;20.73;14.47;;;5.60;1.00;;;;;;4996670;28;20819;-62
2022/03/13 00:50:47;;;;;;;19.80;13.47;;;5.60;1.00;;;;;;4981318;28;20553;-62
2022/03/13 00:53:14;;;;;;;19.73;14.07;;;5.50;1.00;;;;;;4981396;28;20249;-62
2022/03/13 00:55:43;;;;;;;21.43;14.07;;;5.50;1.00;;;;;;4988135;28;20205;-62
2022/03/13 00:58:13;;;;;;;26.87;16.83;;;5.50;1.00;;;;;;4987759;28;20851;-64
2022/03/13 01:00:42;;;;;;;26.43;14.03;;;5.50;1.00;;;;;;4996853;28;20207;-62
2022/03/13 01:03:30;;;;;;;20.67;13.90;;;5.40;1.00;;;;;;4982381;28;20193;-63
2022/03/13 01:06:02;;;;;;;19.17;14.27;;;5.40;1.00;;;;;;4996788;28;20236;-63
2022/03/13 01:08:43;;;;;;;15.50;12.03;;;5.40;1.00;;;;;;4981138;28;20182;-63
2022/03/13 01:11:11;;;;;;;17.17;12.97;;;5.40;1.00;;;;;;4995785;28;20692;-63
2022/03/13 01:13:38;;;;;;;28.90;18.83;;;5.30;1.00;;;;;;4986018;28;20280;-63
2022/03/13 01:16:13;;;;;;;24.60;17.10;;;5.30;1.00;;;;;;4986291;28;21073;-63
2022/03/13 01:18:46;;;;;;;20.00;14.70;;;5.20;1.00;;;;;;4997313;28;20304;-64
2022/03/13 01:21:16;;;;;;;19.40;14.07;;;5.20;15.20;;;;;;4979219;28;20220;-63
2022/03/13 01:24:02;;;;;;;23.03;15.63;;;5.10;17.00;;;;;;4995331;28;20220;-63
2022/03/13 01:26:37;;;;;;;20.13;14.23;;;5.10;26.50;;;;;;4981811;28;20271;-63
2022/03/13 01:29:09;;;;;;;22.37;15.07;;;5.00;24.90;;;;;;4991493;28;20217;-62
2022/03/13 01:31:40;;;;;;;22.13;14.60;;;4.90;43.50;;;;;;4976242;28;20209;-62
2022/03/13 01:34:25;;;;;;;21.60;13.30;;;4.80;87.40;;;;;;4957560;28;20208;-62
2022/03/13 01:36:52;;;;;;;19.63;13.20;;;4.80;99.90;;;;;;4972192;28;20328;-62
2022/03/13 01:39:21;;;;;;;17.63;13.63;;;4.80;99.90;;;;;;4980369;28;20222;-63
2022/03/13 01:41:48;;;;;;;20.97;13.43;;;4.80;99.90;;;;;;4988087;28;20240;-62
2022/03/13 01:44:15;;;;;;;21.57;13.47;;;4.70;99.90;;;;;;4983417;28;20206;-62
2022/03/13 01:46:42;;;;;;;19.60;12.77;;;4.70;99.90;;;;;;4978643;28;20198;-62
2022/03/13 01:49:10;;;;;;;19.73;14.50;;;4.80;99.90;;;;;;4980444;28;20193;-62
2022/03/13 01:51:38;;;;;;;21.73;15.20;;;4.80;99.90;;;;;;4994558;28;20297;-62
2022/03/13 01:54:09;;;;;;;20.73;13.93;;;4.80;92.80;;;;;;4979393;28;20217;-63
2022/03/13 01:56:38;;;;;;;19.83;13.97;;;4.80;99.90;;;;;;4980670;28;20217;-64
2022/03/13 01:59:14;;;;;;;20.47;13.70;;;4.80;99.90;;;;;;4998372;28;20804;-62
2022/03/13 02:01:43;;;;;;;19.77;13.83;;;4.70;99.90;;;;;;4981989;28;20202;-63
2022/03/13 02:04:13;;;;;;;19.77;13.93;;;4.70;99.90;;;;;;4973820;28;20256;-62
2022/03/13 02:06:40;;;;;;;22.67;13.87;;;4.70;99.90;;;;;;4989667;28;20234;-64
2022/03/13 02:09:09;;;;;;;19.47;13.87;;;4.70;99.90;;;;;;4982210;28;20263;-64
2022/03/13 02:11:36;;;;;;;18.73;13.33;;;4.70;99.90;;;;;;4998420;28;20204;-63
2022/03/13 02:14:05;;;;;;;19.30;13.63;;;4.60;99.90;;;;;;4989207;28;20285;-62
2022/03/13 02:16:32;;;;;;;21.60;14.03;;;4.60;99.90;;;;;;4982718;28;20237;-62
2022/03/13 02:18:59;;;;;;;18.97;13.87;;;4.50;99.90;;;;;;4989394;28;20275;-62
2022/03/13 02:21:36;;;;;;;19.13;13.23;;;4.60;99.90;;;;;;4972907;28;20233;-62
2022/03/13 02:24:10;;;;;;;20.53;13.53;;;4.50;99.90;;;;;;4999415;28;20217;-62
2022/03/13 02:26:37;;;;;;;18.43;13.53;;;4.50;99.90;;;;;;4998503;28;20209;-62
2022/03/13 02:29:12;;;;;;;18.93;13.27;;;4.50;99.90;;;;;;4998816;28;20209;-61
2022/03/13 02:31:40;;;;;;;19.40;13.93;;;4.30;99.90;;;;;;4980414;28;20206;-61
2022/03/13 02:34:15;;;;;;;18.70;13.13;;;4.30;99.90;;;;;;4981778;28;20209;-61
2022/03/13 02:36:41;;;;;;;19.67;13.47;;;4.30;99.90;;;;;;4986831;28;20296;-62
2022/03/13 02:39:11;;;;;;;20.37;13.20;;;4.30;99.90;;;;;;4983253;28;20186;-62
2022/03/13 02:41:40;;;;;;;20.07;13.77;;;4.30;99.90;;;;;;4983116;28;20238;-61
2022/03/13 02:44:12;;;;;;;17.43;13.13;;;4.20;99.90;;;;;;4981980;28;20195;-62
2022/03/13 02:46:48;;;;;;;16.97;12.53;;;4.20;99.90;;;;;;4980965;28;20304;-61
2022/03/13 02:49:18;;;;;;;19.53;14.30;;;4.20;99.90;;;;;;4981644;28;20205;-63
2022/03/13 02:51:47;;;;;;;18.33;14.10;;;4.20;99.90;;;;;;4997161;28;20213;-61
2022/03/13 02:54:19;;;;;;;19.63;13.37;;;3.90;1.00;;;;;;4982746;28;20194;-62
2022/03/13 02:56:46;;;;;;;17.27;12.27;;;4.00;1.00;;;;;;4983180;28;20230;-61
2022/03/13 02:59:16;;;;;;;18.50;12.63;;;3.90;1.00;;;;;;4981604;28;20696;-62
2022/03/13 03:01:43;;;;;;;17.87;12.60;;;3.90;1.00;;;;;;4997864;28;20240;-61
2022/03/13 03:04:14;;;;;;;20.83;13.20;;;4.30;1.00;;;;;;4981207;28;20292;-62
2022/03/13 03:06:51;;;;;;;17.97;12.70;;;4.40;99.90;;;;;;4987137;28;20212;-62
2022/03/13 03:09:18;;;;;;;16.47;12.53;;;4.20;1.00;;;;;;4981618;28;21436;-62
2022/03/13 03:11:46;;;;;;;18.27;13.77;;;4.00;99.90;;;;;;4987585;28;20209;-61
2022/03/13 03:14:15;;;;;;;17.93;13.13;;;4.00;99.90;;;;;;4982866;28;20264;-62
2022/03/13 03:16:43;;;;;;;18.00;13.23;;;4.00;99.90;;;;;;4983564;28;20573;-62
2022/03/13 03:19:11;;;;;;;18.63;14.10;;;3.90;99.90;;;;;;4997445;28;20240;-61
2022/03/13 03:21:39;;;;;;;22.20;13.47;;;3.90;99.90;;;;;;4986670;28;20674;-61
2022/03/13 03:24:21;;;;;;;18.17;13.57;;;3.80;99.90;;;;;;4997123;28;20224;-61
2022/03/13 03:26:48;;;;;;;20.80;14.03;;;3.70;99.90;;;;;;4988029;28;20272;-61
2022/03/13 03:29:15;;;;;;;17.50;13.13;;;3.70;99.90;;;;;;4981565;28;20709;-61
2022/03/13 03:31:46;;;;;;;18.40;12.93;;;3.60;99.90;;;;;;4997566;28;20212;-61
2022/03/13 03:34:19;;;;;;;20.07;13.87;;;3.60;99.90;;;;;;4988115;28;20309;-61
2022/03/13 03:36:51;;;;;;;18.97;13.63;;;3.60;99.90;;;;;;4987321;28;20210;-62
2022/03/13 03:39:20;;;;;;;19.33;13.97;;;3.60;99.90;;;;;;4979206;28;20540;-62
2022/03/13 03:41:50;;;;;;;18.30;13.53;;;3.50;99.90;;;;;;4997148;28;20285;-62
2022/03/13 03:44:18;;;;;;;16.73;13.70;;;3.50;99.90;;;;;;4987492;28;20305;-62
2022/03/13 03:46:46;;;;;;;17.53;13.53;;;3.40;99.90;;;;;;4996709;28;20272;-60
2022/03/13 03:49:13;;;;;;;20.80;13.70;;;3.40;1.00;;;;;;4981575;28;20198;-61
2022/03/13 03:51:41;;;;;;;22.17;14.20;;;3.30;1.00;;;;;;4982243;28;20253;-62
2022/03/13 03:54:08;;;;;;;17.50;13.10;;;3.30;1.00;;;;;;4987633;28;20202;-63
2022/03/13 03:56:36;;;;;;;18.33;13.33;;;3.30;1.00;;;;;;4986918;28;20206;-63
2022/03/13 03:59:05;;;;;;;20.10;13.37;;;3.40;1.00;;;;;;4997158;28;20649;-61
2022/03/13 04:01:43;;;;;;;20.60;13.70;;;3.30;99.90;;;;;;4983228;28;20301;-62
2022/03/13 04:04:18;;;;;;;19.20;13.03;;;3.30;99.90;;;;;;4997144;28;21086;-61
2022/03/13 04:06:45;;;;;;;18.20;13.40;;;3.20;99.90;;;;;;4996016;28;20209;-62
2022/03/13 04:09:14;;;;;;;18.77;12.53;;;3.20;99.90;;;;;;4996775;28;20202;-61
2022/03/13 04:11:41;;;;;;;20.47;13.10;;;3.20;99.90;;;;;;4980798;28;20198;-62
2022/03/13 04:14:09;;;;;;;19.07;13.70;;;3.20;99.90;;;;;;4988073;28;20206;-61
2022/03/13 04:16:36;;;;;;;17.97;12.87;;;3.20;99.90;;;;;;4996368;28;20185;-61
2022/03/13 04:19:03;;;;;;;18.07;13.23;;;3.10;99.90;;;;;;4981653;28;20214;-62
2022/03/13 04:21:30;;;;;;;18.90;14.10;;;3.10;99.90;;;;;;4995488;28;20229;-63
2022/03/13 04:23:57;;;;;;;21.47;13.40;;;3.10;99.90;;;;;;4979450;28;20552;-62
2022/03/13 04:26:26;;;;;;;20.30;13.97;;;3.00;99.90;;;;;;4981778;28;20209;-61
2022/03/13 04:28:55;;;;;;;18.43;13.37;;;3.00;99.90;;;;;;4970588;28;20206;-61
2022/03/13 04:31:24;;;;;;;19.13;13.10;;;3.00;99.90;;;;;;4996129;28;20245;-61
2022/03/13 04:33:55;;;;;;;18.07;13.43;;;3.00;99.90;;;;;;4986516;28;20700;-62
2022/03/13 04:36:24;;;;;;;18.47;12.40;;;2.90;99.90;;;;;;4985851;28;20198;-61
2022/03/13 04:38:53;;;;;;;18.53;12.67;;;2.90;99.90;;;;;;4979407;28;20238;-65
2022/03/13 04:41:22;;;;;;;16.33;12.60;;;2.90;99.90;;;;;;4984620;28;20293;-62
2022/03/13 04:43:49;;;;;;;16.83;11.83;;;2.80;99.90;;;;;;4976077;28;20556;-62
2022/03/13 04:46:16;;;;;;;18.27;12.83;;;2.80;99.90;;;;;;4979961;28;20206;-62
2022/03/13 04:48:47;;;;;;;20.10;13.27;;;2.80;99.90;;;;;;4996719;28;20296;-62
2022/03/13 04:51:14;;;;;;;17.47;13.63;;;2.70;99.90;;;;;;4980139;28;20194;-62
2022/03/13 04:53:41;;;;;;;19.93;13.50;;;2.70;99.90;;;;;;4969427;28;20240;-62
2022/03/13 04:56:08;;;;;;;20.37;13.03;;;2.70;99.90;;;;;;4986425;28;20245;-62
2022/03/13 04:58:38;;;;;;;21.87;13.47;;;2.70;99.90;;;;;;4986829;28;20222;-62
2022/03/13 05:01:09;;;;;;;17.43;12.57;;;2.70;99.90;;;;;;4995643;28;20206;-64
2022/03/13 05:03:39;;;;;;;17.53;12.70;;;2.70;99.90;;;;;;4979630;28;20204;-62
2022/03/13 05:06:06;;;;;;;19.63;13.30;;;2.70;99.90;;;;;;4978063;28;20205;-62
2022/03/13 05:08:34;;;;;;;19.17;12.83;;;2.80;99.90;;;;;;4985353;28;20264;-62
2022/03/13 05:11:07;;;;;;;18.17;12.53;;;2.80;99.90;;;;;;4994684;28;20205;-62
2022/03/13 05:13:37;;;;;;;19.57;12.90;;;2.80;99.90;;;;;;4981984;28;20202;-62
2022/03/13 05:16:04;;;;;;;21.30;12.60;;;2.80;99.90;;;;;;4984944;28;20217;-62
2022/03/13 05:18:32;;;;;;;17.67;12.60;;;2.70;99.90;;;;;;4986579;28;20284;-62
2022/03/13 05:20:59;;;;;;;17.73;13.03;;;2.70;99.90;;;;;;4981187;28;20269;-61
2022/03/13 05:23:26;;;;;;;20.33;12.87;;;2.60;99.90;;;;;;4984407;28;20285;-61
2022/03/13 05:25:53;;;;;;;17.17;12.87;;;2.60;99.90;;;;;;4994189;28;20198;-62
2022/03/13 05:28:25;;;;;;;18.00;12.83;;;2.60;99.90;;;;;;4980670;28;20237;-62
2022/03/13 05:30:52;;;;;;;16.67;13.10;;;2.50;99.90;;;;;;4996504;28;20233;-62
2022/03/13 05:33:21;;;;;;;18.27;12.83;;;2.50;99.90;;;;;;4990465;28;22358;-63
2022/03/13 05:35:50;;;;;;;16.73;12.63;;;2.50;99.90;;;;;;5001446;28;20651;-64
2022/03/13 05:38:17;;;;;;;21.23;13.33;;;2.50;99.90;;;;;;4989583;28;20214;-62
2022/03/13 05:40:45;;;;;;;20.67;12.17;;;2.40;99.90;;;;;;5002628;28;20280;-64
2022/03/13 05:43:14;;;;;;;20.53;13.50;;;2.50;99.90;;;;;;5002377;28;20253;-62
2022/03/13 05:45:47;;;;;;;19.47;13.13;;;2.50;99.90;;;;;;4976456;28;20189;-62
2022/03/13 05:48:17;;;;;;;18.80;12.93;;;2.40;99.90;;;;;;4987598;28;20283;-62
2022/03/13 05:50:45;;;;;;;18.47;13.53;;;2.50;99.90;;;;;;4973454;28;20796;-62
2022/03/13 05:53:14;;;;;;;23.33;13.80;;;2.50;99.90;;;;;;4972145;28;20663;-62
2022/03/13 05:55:41;;;;;;;16.33;13.17;;;2.50;99.90;;;;;;4974799;28;20205;-62
2022/03/13 05:58:09;;;;;;;18.43;12.93;;;2.50;99.90;;;;;;4981533;28;20218;-62
2022/03/13 06:00:36;;;;;;;20.13;13.53;;;2.60;99.90;;;;;;4988367;28;20284;-62
2022/03/13 06:03:04;;;;;;;18.37;12.60;;;2.60;99.90;;;;;;4973837;28;20319;-62
2022/03/13 06:05:32;;;;;;;18.77;13.03;;;2.60;99.90;;;;;;4998430;28;20687;-62
2022/03/13 06:07:59;;;;;;;16.90;12.60;;;2.60;99.90;;;;;;4984043;28;20597;-62
2022/03/13 06:10:26;;;;;;;18.20;12.33;;;2.70;99.90;;;;;;4982740;28;20217;-63
2022/03/13 06:12:53;;;;;;;18.00;13.40;;;2.90;99.90;;;;;;5000663;28;20209;-61
2022/03/13 06:15:22;;;;;;;21.83;14.00;;;3.90;31.00;;;;;;4990446;28;20296;-62
2022/03/13 06:17:49;;;;;;;17.77;11.63;;;4.90;1.00;;;;;;4980797;28;20245;-62
2022/03/13 06:20:18;;;;;;;18.13;13.57;;;5.90;1.00;;;;;;4997700;28;20256;-62
2022/03/13 06:22:47;;;;;;;18.13;13.00;;;6.80;1.00;;;;;;4983037;28;20218;-62
2022/03/13 06:25:17;;;;;;;17.03;11.20;;;7.50;1.00;;;;;;4997672;28;20201;-63
2022/03/13 06:27:45;;;;;;;14.10;11.50;;;8.20;1.00;;;;;;4998162;28;20751;-63
2022/03/13 06:30:16;;;;;;;13.77;11.10;;;8.90;1.00;;;;;;4997202;28;20202;-63
2022/03/13 06:32:47;;;;;;;15.17;11.07;;;9.50;1.00;;;;;;4997953;28;20534;-63
2022/03/13 06:35:18;;;;;;;14.47;10.87;;;9.70;1.00;;;;;;4998408;28;20206;-63
2022/03/13 06:37:49;;;;;;;13.27;11.37;;;10.10;1.00;;;;;;4988307;28;20229;-63
2022/03/13 06:40:20;;;;;;;14.23;11.33;;;10.30;1.00;;;;;;4980863;28;20202;-63
2022/03/13 06:42:55;;;;;;;13.90;11.73;;;9.80;1.00;;;;;;4983642;28;20182;-63
2022/03/13 06:45:25;;;;;;;15.43;12.17;;;10.20;1.00;;;;;;4989379;28;20582;-63
2022/03/13 06:47:52;;;;;;;15.17;12.07;;;9.80;99.90;;;;;;4998489;28;20695;-63
2022/03/13 06:50:23;;;;;;;14.73;11.27;;;9.80;1.00;;;;;;4970818;28;20676;-64
2022/03/13 06:52:52;;;;;;;14.60;10.57;;;11.70;99.90;;;;;;4989382;28;20205;-63
2022/03/13 06:55:22;;;;;;;13.17;10.50;;;13.00;99.90;;;;;;4977248;28;20253;-63
2022/03/13 06:57:50;;;;;;;12.03;9.87;;;13.80;99.90;;;;;;4974245;28;20292;-62
2022/03/13 07:00:19;;;;;;;12.90;9.70;;;14.00;99.90;;;;;;4985535;28;20213;-63
2022/03/13 07:02:50;;;;;;;14.20;9.77;;;14.20;99.90;;;;;;4982963;28;20621;-63
2022/03/13 07:05:21;;;;;;;11.73;8.83;;;13.60;99.90;;;;;;4983248;28;20241;-63
2022/03/13 07:07:48;;;;;;;10.67;8.97;;;14.00;99.90;;;;;;4995232;28;20201;-63
2022/03/13 07:10:17;;;;;;;15.47;9.23;;;15.10;99.90;;;;;;4987875;28;20547;-64
2022/03/13 07:12:49;;;;;;;14.23;8.40;;;15.60;99.90;;;;;;4984007;28;20627;-63
2022/03/13 07:15:20;;;;;;;11.30;8.73;;;15.40;99.90;;;;;;4981931;28;20260;-64
2022/03/13 07:17:47;;;;;;;13.23;9.20;;;15.50;99.90;;;;;;4996704;28;20206;-64
2022/03/13 07:20:15;;;;;;;9.73;8.17;;;15.20;99.90;;;;;;4984721;28;20436;-63
2022/03/13 07:22:44;;;;;;;12.60;9.43;;;14.50;99.90;;;;;;4988172;28;20641;-63
2022/03/13 07:25:14;;;;;;;11.60;8.43;;;14.90;99.90;;;;;;4997433;28;20206;-63
2022/03/13 07:27:41;;;;;;;9.77;8.13;;;15.40;99.90;;;;;;4980714;28;20202;-63
2022/03/13 07:30:14;;;;;;;9.10;8.20;;;14.80;99.90;;;;;;4988523;28;20222;-63
2022/03/13 07:32:46;;;;;;;12.43;8.50;;;13.80;99.90;;;;;;4981226;28;20194;-63
2022/03/13 07:35:17;;;;;;;11.50;8.73;;;14.60;99.90;;;;;;4982270;28;20217;-63
2022/03/13 07:37:44;;;;;;;11.80;8.60;;;14.80;99.90;;;;;;4998333;28;20209;-63
2022/03/13 07:40:12;;;;;;;9.77;8.10;;;14.20;99.90;;;;;;4982227;28;20194;-62
2022/03/13 07:42:39;;;;;;;10.17;8.13;;;15.40;99.90;;;;;;4995946;28;20224;-62
2022/03/13 07:45:09;;;;;;;11.03;8.60;;;16.80;99.90;;;;;;4981692;28;20293;-62
2022/03/13 07:47:36;;;;;;;9.90;7.67;;;16.50;99.90;;;;;;4980869;28;20581;-62
2022/03/13 07:50:05;;;;;;;9.95;7.82;;;17.30;99.90;;;;;;4981647;28;20235;-62
2022/03/13 07:52:31;;;;;;;13.10;8.07;;;18.80;99.90;;;;;;4996919;28;20242;-62
2022/03/13 07:55:01;;;;;;;10.52;8.30;;;19.00;99.90;;;;;;4985745;28;20209;-62
2022/03/13 07:57:31;;;;;;;9.68;7.80;;;18.90;99.90;;;;;;4988704;28;20267;-61
2022/03/13 08:00:00;;;;;;;10.80;7.95;;;20.00;99.90;;;;;;4981917;28;20280;-62
2022/03/13 08:02:28;;;;;;;9.77;7.53;;;20.80;99.90;;;;;;4963041;28;20203;-61
2022/03/13 08:04:57;;;;;;;10.90;8.52;;;21.30;99.90;;;;;;4994482;28;20230;-62
2022/03/13 08:07:24;;;;;;;7.75;6.95;;;22.40;99.90;;;;;;4979524;28;20198;-62
2022/03/13 08:09:51;;;;;;;9.95;7.57;;;21.40;99.90;;;;;;4981445;28;20211;-63
2022/03/13 08:12:18;;;;;;;8.32;7.43;;;21.90;99.90;;;;;;4981548;28;20241;-62
2022/03/13 08:14:45;;;;;;;9.88;7.20;;;21.90;99.90;;;;;;4981550;28;20230;-62
2022/03/13 08:17:12;;;;;;;9.27;7.93;;;20.50;99.90;;;;;;4986077;28;20224;-62
2022/03/13 08:19:42;;;;;;;8.27;7.28;;;19.80;99.90;;;;;;4987052;28;20221;-62
2022/03/13 08:22:09;;;;;;;10.05;7.70;;;17.50;99.90;;;;;;4979514;28;20198;-62
2022/03/13 08:24:38;;;;;;;12.02;7.30;;;15.40;99.90;;;;;;4997899;28;20289;-62
2022/03/13 08:27:05;;;;;;;12.05;7.75;;;13.50;99.90;;;;;;4997115;28;20597;-61
2022/03/13 08:29:32;;;;;;;11.20;7.57;;;12.50;99.90;;;;;;4982992;28;20197;-61
2022/03/13 08:32:05;;;;;;;10.85;8.32;;;12.20;99.90;;;;;;4978799;28;20218;-62
2022/03/13 08:34:37;;;;;;;10.40;8.10;;;11.80;99.90;;;;;;4995899;28;20250;-62
2022/03/13 08:37:04;;;;;;;13.17;8.10;;;12.00;99.90;;;;;;4981252;28;20328;-62
2022/03/13 08:39:32;;;;;;;14.07;7.67;;;11.90;99.90;;;;;;4986744;28;20308;-62
2022/03/13 08:41:59;;;;;;;11.03;7.53;;;11.70;99.90;;;;;;4987989;28;20760;-63
2022/03/13 08:44:30;;;;;;;11.50;7.40;;;11.90;99.90;;;;;;4986764;28;20691;-62
2022/03/13 08:46:58;;;;;;;8.73;7.10;;;12.30;99.90;;;;;;4996855;28;20265;-63
2022/03/13 08:49:25;;;;;;;12.13;7.10;;;12.30;99.90;;;;;;4996069;28;20213;-62
2022/03/13 08:51:55;;;;;;;8.00;6.80;;;12.30;99.90;;;;;;4983699;28;20206;-63
2022/03/13 08:54:24;;;;;;;8.83;6.80;;;12.40;99.90;;;;;;4983877;28;20275;-62
2022/03/13 08:56:54;;;;;;;10.93;6.70;;;12.70;99.90;;;;;;4975676;28;20206;-64
2022/03/13 08:59:21;;;;;;;9.67;7.17;;;12.20;99.90;;;;;;4996693;28;20237;-64
2022/03/13 09:01:54;;;;;;;10.73;6.93;;;12.30;99.90;;;;;;4992588;28;20190;-64
2022/03/13 09:04:21;;;;;;;10.07;7.53;;;13.40;99.90;;;;;;4987548;28;20269;-64
2022/03/13 09:06:49;;;;;;;10.07;7.33;;;16.00;99.90;;;;;;4998558;28;20229;-64
2022/03/13 09:09:19;;;;;;;9.97;7.40;;;17.50;99.90;;;;;;4984743;28;20209;-64
2022/03/13 09:11:47;;;;;;;8.63;6.63;;;19.10;99.90;;;;;;4984070;28;20654;-64
2022/03/13 09:14:14;;;;;;;9.30;6.93;;;21.30;99.90;;;;;;4987215;28;20267;-64
2022/03/13 09:16:42;;;;;;;9.40;6.75;;;21.20;99.90;;;;;;4999396;28;20260;-64
2022/03/13 09:19:09;;;;;;;8.43;7.10;;;23.00;99.90;;;;;;4983469;28;20309;-63
2022/03/13 09:21:40;;;;;;;8.93;7.32;;;24.00;99.90;;;;;;4984825;28;20221;-64
2022/03/13 09:24:09;;;;;;;11.82;7.28;;;23.20;99.90;;;;;;4985811;28;20221;-64
2022/03/13 09:26:45;;;;;;;8.25;6.95;;;21.60;99.90;;;;;;5000133;28;20204;-63
2022/03/13 09:29:13;;;;;;;7.55;6.75;;;22.00;99.90;;;;;;4985475;28;20205;-64
2022/03/13 09:31:40;;;;;;;7.93;7.05;;;21.20;99.90;;;;;;5000579;28;20260;-64
2022/03/13 09:34:10;;;;;;;8.65;7.63;;;21.60;99.90;;;;;;4983734;28;20222;-63
2022/03/13 09:36:37;;;;;;;10.50;7.40;;;24.30;99.90;;;;;;4984720;28;20738;-64
2022/03/13 09:39:06;;;;;;;10.15;7.95;;;23.40;99.90;;;;;;4983239;28;20229;-64
2022/03/13 09:41:34;;;;;;;9.35;7.82;;;22.40;99.90;;;;;;4990284;28;20254;-64
2022/03/13 09:44:06;;;;;;;9.13;7.60;;;20.80;99.90;;;;;;5001223;28;20198;-64
2022/03/13 09:46:38;;;;;;;11.18;7.82;;;21.00;99.90;;;;;;4999739;28;20197;-64
2022/03/13 09:49:06;;;;;;;11.18;7.70;;;22.20;99.90;;;;;;4983392;28;20284;-63
2022/03/13 09:51:35;;;;;;;9.95;7.85;;;23.60;99.90;;;;;;5000052;28;20193;-64
2022/03/13 09:54:03;;;;;;;10.40;7.80;;;25.70;99.90;;;;;;4988659;28;20237;-64
2022/03/13 09:56:38;;;;;;;9.90;7.93;;;25.20;99.90;;;;;;4983690;28;20213;-64
2022/03/13 09:59:07;;;;;;;10.48;8.50;;;24.60;99.90;;;;;;4991614;28;20220;-64
2022/03/13 10:01:35;;;;;;;10.50;8.32;;;24.50;99.90;;;;;;4990208;28;20190;-64
2022/03/13 10:04:04;;;;;;;11.85;8.68;;;23.90;99.90;;;;;;4989471;28;20660;-64
2022/03/13 10:06:33;;;;;;;10.98;9.02;;;23.40;99.90;;;;;;4989800;28;20206;-64
2022/03/13 10:09:26;;;;;;;10.13;8.85;;;22.40;99.90;;;;;;4999550;28;20254;-63
2022/03/13 10:12:03;;;;;;;13.10;9.15;;;23.60;99.90;;;;;;4984082;28;20314;-63
2022/03/13 10:14:32;;;;;;;10.80;9.00;;;23.60;99.90;;;;;;4984758;28;20209;-64
2022/03/13 10:17:01;;;;;;;14.68;9.25;;;22.00;1.00;;;;;;4999484;28;20206;-63
2022/03/13 10:19:32;;;;;;;12.80;10.30;;;22.70;1.00;;;;;;4984994;28;20251;-63
2022/03/13 10:22:09;;;;;;;14.07;10.05;;;21.40;99.90;;;;;;4967532;28;20201;-63
2022/03/13 10:24:45;;;;;;;14.07;11.07;;;21.30;99.90;;;;;;4997022;28;20289;-64
2022/03/13 10:27:14;;;;;;;12.20;9.45;;;21.30;1.00;;;;;;4965693;28;20722;-63
2022/03/13 10:29:42;;;;;;;11.95;9.60;;;21.30;99.90;;;;;;4978749;28;20249;-63
2022/03/13 10:32:12;;;;;;;14.00;10.88;;;22.10;99.90;;;;;;4981237;28;20229;-65
2022/03/13 10:34:40;;;;;;;14.43;10.70;;;20.20;99.90;;;;;;4991495;28;20776;-63
2022/03/13 10:37:08;;;;;;;14.27;10.85;;;20.70;99.90;;;;;;4985927;28;20206;-63
2022/03/13 10:39:36;;;;;;;14.05;11.13;;;24.00;99.90;;;;;;4996784;28;20767;-64
2022/03/13 10:42:03;;;;;;;13.23;9.93;;;25.80;99.90;;;;;;4982567;28;20229;-64
2022/03/13 10:44:43;;;;;;;13.07;10.65;;;25.10;99.90;;;;;;4987976;28;20210;-63
2022/03/13 10:47:12;;;;;;;15.43;11.68;;;23.00;99.90;;;;;;4981684;28;20206;-63
2022/03/13 10:49:45;;;;;;;15.07;10.85;;;22.30;1.00;;;;;;4983786;28;20633;-64
2022/03/13 10:52:25;;;;;;;12.60;10.77;;;21.20;1.00;;;;;;4999628;28;20198;-63
2022/03/13 10:54:54;;;;;;;15.52;11.23;;;21.70;99.90;;;;;;4980903;28;20606;-64
2022/03/13 10:57:21;;;;;;;15.75;11.13;;;24.10;99.90;;;;;;4984897;28;20570;-64
2022/03/13 11:00:11;;;;;;;14.65;11.05;;;23.70;99.90;;;;;;4985292;28;20210;-63
2022/03/13 11:02:38;;;;;;;13.18;10.73;;;23.10;99.90;;;;;;4961802;28;20416;-64
2022/03/13 11:05:11;;;;;;;13.95;11.48;;;21.90;99.90;;;;;;4985578;28;20198;-64
2022/03/13 11:07:38;;;;;;;14.35;11.95;;;22.00;99.90;;;;;;4982491;28;20206;-64
2022/03/13 11:10:07;;;;;;;14.02;11.45;;;22.00;99.90;;;;;;4984754;28;20277;-64
2022/03/13 11:12:41;;;;;;;20.35;12.50;;;23.00;99.90;;;;;;5010504;28;20715;-64
2022/03/13 11:15:11;;;;;;;15.88;12.18;;;20.40;99.90;;;;;;4995239;28;20202;-64
2022/03/13 11:17:40;;;;;;;16.23;11.63;;;19.20;99.90;;;;;;4994386;28;20210;-64
2022/03/13 11:20:10;;;;;;;13.90;11.27;;;18.70;99.90;;;;;;4981487;28;20627;-64
2022/03/13 11:22:37;;;;;;;18.13;12.38;;;20.10;99.90;;;;;;4994937;28;20221;-64
2022/03/13 11:25:08;;;;;;;15.43;11.45;;;20.80;99.90;;;;;;4997617;28;20198;-64
2022/03/13 11:27:41;;;;;;;17.45;12.52;;;20.60;99.90;;;;;;4986009;28;20205;-63
2022/03/13 11:30:13;;;;;;;16.95;12.23;;;19.70;99.90;;;;;;4983608;28;20204;-63
2022/03/13 11:32:51;;;;;;;13.18;11.30;;;20.60;99.90;;;;;;4980690;28;20647;-64
2022/03/13 11:35:19;;;;;;;14.65;12.20;;;21.10;99.90;;;;;;4980743;28;20645;-64
2022/03/13 11:38:16;;;;;;;17.98;12.27;;;22.00;99.90;;;;;;4992945;28;20198;-65
2022/03/13 11:40:48;;;;;;;14.63;12.35;;;21.80;99.90;;;;;;4977498;28;20238;-64
2022/03/13 11:43:20;;;;;;;16.15;11.60;;;23.10;99.90;;;;;;4991762;28;20620;-63
2022/03/13 11:45:55;;;;;;;14.52;11.93;;;22.40;99.90;;;;;;4977051;28;20270;-62
2022/03/13 11:48:22;;;;;;;14.13;12.10;;;21.20;99.90;;;;;;4977265;28;20720;-63
2022/03/13 11:51:00;;;;;;;15.45;12.57;;;21.60;99.90;;;;;;4982745;28;20264;-62
2022/03/13 11:53:29;;;;;;;17.02;13.00;;;21.10;99.90;;;;;;4979443;28;20276;-63
2022/03/13 11:56:27;;;;;;;18.02;12.45;;;20.80;99.90;;;;;;4963054;28;20219;-63
2022/03/13 11:58:59;;;;;;;16.70;12.48;;;21.10;99.90;;;;;;4984091;28;20288;-63
2022/03/13 12:01:39;;;;;;;16.30;12.98;;;20.30;99.90;;;;;;4977924;28;20194;-64
2022/03/13 12:04:14;;;;;;;15.73;13.07;;;21.60;99.90;;;;;;4972071;28;20328;-64
2022/03/13 12:06:55;;;;;;;16.10;13.35;;;22.50;99.90;;;;;;4977729;28;20309;-63
2022/03/13 12:09:42;;;;;;;13.93;12.40;;;23.20;99.90;;;;;;4962908;28;20885;-63
2022/03/13 12:12:15;;;;;;;14.98;12.30;;;23.00;99.90;;;;;;4996340;28;20242;-62
2022/03/13 12:14:52;;;;;;;16.63;12.98;;;22.30;99.90;;;;;;4989128;28;20228;-62
2022/03/13 12:17:20;;;;;;;15.63;13.23;;;20.50;99.90;;;;;;4976093;28;20224;-63
2022/03/13 12:19:47;;;;;;;17.30;11.88;;;22.20;99.90;;;;;;4975676;28;20222;-62
2022/03/13 12:22:17;;;;;;;15.00;11.90;;;22.60;99.90;;;;;;4977864;28;20221;-63
2022/03/13 12:24:49;;;;;;;15.85;11.35;;;21.90;99.90;;;;;;4975364;28;21285;-63
2022/03/13 12:27:18;;;;;;;17.23;11.52;;;21.00;99.90;;;;;;4964323;28;20210;-62
2022/03/13 12:29:49;;;;;;;17.67;12.70;;;21.80;99.90;;;;;;4994076;28;20253;-63
2022/03/13 12:32:16;;;;;;;15.88;12.77;;;19.50;99.90;;;;;;4977924;28;20671;-62
2022/03/13 12:34:44;;;;;;;15.27;11.98;;;20.30;99.90;;;;;;4978847;28;22203;-62
2022/03/13 12:37:13;;;;;;;15.13;12.50;;;19.80;99.90;;;;;;4976701;28;20205;-62
2022/03/13 12:40:05;;;;;;;17.40;11.75;;;20.50;99.90;;;;;;4974541;28;20221;-62
2022/03/13 12:42:37;;;;;;;16.67;12.10;;;20.40;99.90;;;;;;4985072;28;20651;-63
2022/03/13 12:45:12;;;;;;;14.77;11.75;;;20.00;99.90;;;;;;4978465;28;20276;-63
2022/03/13 12:47:46;;;;;;;18.00;12.18;;;20.60;99.90;;;;;;4989292;28;21131;-63
2022/03/13 12:50:14;;;;;;;14.93;12.15;;;19.60;99.90;;;;;;4963183;28;20319;-63
2022/03/13 12:52:52;;;;;;;13.63;11.40;;;20.10;99.90;;;;;;4979190;28;20213;-63